createdAt,value
2022-12-15T00:00:12.962Z,21.83
2022-12-15T00:02:58.782Z,22.30
2022-12-15T00:05:45.065Z,21.47
2022-12-15T00:08:36.472Z,21.03
2022-12-15T00:11:22.617Z,21.23
2022-12-15T00:14:08.824Z,20.60
2022-12-15T00:16:55.900Z,21.10
2022-12-15T00:19:42.052Z,21.27
2022-12-15T00:22:28.415Z,21.10
2022-12-15T00:25:14.503Z,21.17
2022-12-15T00:28:00.742Z,21.63
2022-12-15T00:30:49.862Z,21.47
2022-12-15T00:33:37.165Z,20.37
2022-12-15T00:36:23.651Z,21.07
2022-12-15T00:38:52.199Z,20.70
2022-12-15T00:41:20.346Z,20.93
2022-12-15T00:43:48.949Z,21.53
2022-12-15T00:46:34.990Z,21.07
2022-12-15T00:49:24.778Z,21.27
2022-12-15T00:52:11.081Z,19.67
2022-12-15T00:54:57.070Z,19.77
2022-12-15T00:57:43.354Z,20.97
2022-12-15T01:00:30.196Z,19.30
2022-12-15T01:03:16.196Z,19.40
2022-12-15T01:06:03.318Z,20.00
2022-12-15T01:08:50.664Z,19.40
2022-12-15T01:11:36.051Z,20.70
2022-12-15T01:14:22.447Z,19.97
2022-12-15T01:17:08.839Z,20.53
2022-12-15T01:19:54.643Z,19.97
2022-12-15T01:22:24.777Z,19.70
2022-12-15T01:24:53.240Z,19.43
2022-12-15T01:27:21.693Z,20.33
2022-12-15T01:29:50.142Z,20.00
2022-12-15T01:32:18.616Z,20.27
2022-12-15T01:34:47.013Z,20.90
2022-12-15T01:37:15.865Z,19.97
2022-12-15T01:40:03.021Z,20.17
2022-12-15T01:42:31.809Z,19.87
2022-12-15T01:45:33.743Z,18.90
2022-12-15T01:48:06.058Z,19.13
2022-12-15T01:50:38.610Z,19.07
2022-12-15T01:53:07.238Z,20.37
2022-12-15T01:55:37.807Z,19.53
2022-12-15T01:58:09.176Z,19.10
2022-12-15T02:00:37.784Z,19.20
2022-12-15T02:03:08.106Z,20.00
2022-12-15T02:05:37.127Z,19.90
2022-12-15T02:08:06.086Z,20.70
2022-12-15T02:10:48.451Z,19.60
2022-12-15T02:13:24.605Z,20.67
2022-12-15T02:16:00.718Z,20.43
2022-12-15T02:18:36.360Z,20.40
2022-12-15T02:21:11.204Z,19.37
2022-12-15T02:24:30.137Z,19.63
2022-12-15T02:27:35.407Z,19.20
2022-12-15T02:30:35.358Z,20.57
2022-12-15T02:33:13.228Z,19.00
2022-12-15T02:35:53.702Z,20.07
2022-12-15T02:38:31.268Z,19.73
2022-12-15T02:41:01.113Z,19.70
2022-12-15T02:43:31.385Z,18.20
2022-12-15T02:46:16.786Z,19.43
2022-12-15T02:49:00.197Z,18.20
2022-12-15T02:51:45.194Z,19.03
2022-12-15T02:54:29.276Z,19.40
2022-12-15T02:57:06.098Z,19.83
2022-12-15T02:59:43.332Z,20.00
2022-12-15T03:02:16.054Z,21.23
2022-12-15T03:04:45.588Z,20.53
2022-12-15T03:07:15.640Z,20.93
2022-12-15T03:09:44.197Z,19.87
2022-12-15T03:12:12.625Z,20.40
2022-12-15T03:14:40.822Z,20.23
2022-12-15T03:17:08.900Z,20.00
2022-12-15T03:19:38.404Z,19.10
2022-12-15T03:22:06.776Z,19.83
2022-12-15T03:24:35.263Z,20.43
2022-12-15T03:27:03.884Z,19.90
2022-12-15T03:29:32.169Z,19.03
2022-12-15T03:32:00.632Z,20.50
2022-12-15T03:34:28.880Z,19.77
2022-12-15T03:36:59.270Z,19.50
2022-12-15T03:39:27.833Z,19.20
2022-12-15T03:41:56.210Z,19.37
2022-12-15T03:44:24.333Z,18.93
2022-12-15T03:46:52.755Z,19.43
2022-12-15T03:49:20.868Z,19.33
2022-12-15T03:51:49.245Z,19.00
2022-12-15T03:54:18.791Z,18.97
2022-12-15T03:56:47.189Z,19.70
2022-12-15T03:59:15.941Z,19.37
2022-12-15T04:01:48.314Z,19.60
2022-12-15T04:04:16.919Z,20.40
2022-12-15T04:06:45.326Z,18.33
2022-12-15T04:09:13.846Z,18.87
2022-12-15T04:11:44.363Z,19.33
2022-12-15T04:14:12.884Z,19.37
2022-12-15T04:16:41.036Z,19.10
2022-12-15T04:19:27.029Z,19.37
2022-12-15T04:21:56.153Z,19.27
2022-12-15T04:24:42.429Z,18.60
2022-12-15T04:27:29.622Z,19.40
2022-12-15T04:30:15.612Z,17.90
2022-12-15T04:33:01.561Z,18.67
2022-12-15T04:35:49.957Z,18.83
2022-12-15T04:38:35.938Z,19.80
2022-12-15T04:41:21.494Z,20.53
2022-12-15T04:44:09.021Z,21.07
2022-12-15T04:46:54.714Z,21.07
2022-12-15T04:49:40.281Z,22.10
2022-12-15T04:52:26.413Z,21.87
2022-12-15T04:55:12.586Z,21.53
2022-12-15T04:57:58.929Z,22.43
2022-12-15T05:00:45.697Z,20.70
2022-12-15T05:03:32.562Z,21.87
2022-12-15T05:06:18.918Z,21.47
2022-12-15T05:09:04.822Z,21.23
2022-12-15T05:11:50.998Z,20.97
2022-12-15T05:14:36.921Z,20.90
2022-12-15T05:17:24.799Z,20.23
2022-12-15T05:20:11.111Z,21.77
2022-12-15T05:22:57.243Z,20.77
2022-12-15T05:25:43.109Z,20.73
2022-12-15T05:28:29.198Z,22.50
2022-12-15T05:31:15.194Z,21.73
2022-12-15T05:33:44.837Z,20.93
2022-12-15T05:36:13.214Z,21.50
2022-12-15T05:38:41.784Z,21.23
2022-12-15T05:41:10.361Z,23.60
2022-12-15T05:43:38.906Z,23.90
2022-12-15T05:46:07.487Z,23.10
2022-12-15T05:48:36.296Z,23.50
2022-12-15T05:51:07.528Z,25.00
2022-12-15T05:53:36.249Z,23.10
2022-12-15T05:56:05.166Z,25.23
2022-12-15T05:58:33.873Z,25.50
2022-12-15T06:01:06.527Z,25.57
2022-12-15T06:03:35.136Z,25.03
2022-12-15T06:06:03.993Z,25.00
2022-12-15T06:08:35.179Z,27.00
2022-12-15T06:11:04.046Z,24.77
2022-12-15T06:13:34.856Z,25.17
2022-12-15T06:16:05.764Z,26.00
2022-12-15T06:18:36.217Z,24.27
2022-12-15T06:21:07.126Z,26.17
2022-12-15T06:23:37.475Z,25.23
2022-12-15T06:26:11.184Z,25.47
2022-12-15T06:28:39.793Z,26.87
2022-12-15T06:31:09.849Z,26.57
2022-12-15T06:33:38.770Z,27.87
2022-12-15T06:36:08.765Z,25.13
2022-12-15T06:38:38.617Z,25.83
2022-12-15T06:41:08.250Z,26.70
2022-12-15T06:43:36.712Z,25.47
2022-12-15T06:46:05.621Z,26.27
2022-12-15T06:48:34.347Z,26.20
2022-12-15T06:51:05.052Z,27.77
2022-12-15T06:53:34.192Z,27.10
2022-12-15T06:56:04.819Z,26.53
2022-12-15T06:58:33.356Z,27.27
2022-12-15T07:01:07.906Z,27.60
2022-12-15T07:03:37.521Z,26.70
2022-12-15T07:06:08.299Z,28.00
2022-12-15T07:08:41.335Z,27.67
2022-12-15T07:11:13.759Z,27.37
2022-12-15T07:13:42.611Z,28.47
2022-12-15T07:16:12.450Z,28.40
2022-12-15T07:18:41.306Z,30.87
2022-12-15T07:21:10.846Z,31.50
2022-12-15T07:23:54.073Z,31.83
2022-12-15T07:26:24.866Z,31.47
2022-12-15T07:28:53.735Z,31.20
2022-12-15T07:31:23.014Z,32.67
2022-12-15T07:33:52.773Z,31.57
2022-12-15T07:36:21.617Z,33.37
2022-12-15T07:38:50.996Z,31.87
2022-12-15T07:41:21.035Z,31.07
2022-12-15T07:43:50.469Z,32.87
2022-12-15T07:46:19.378Z,28.60
2022-12-15T07:48:48.289Z,34.20
2022-12-15T07:51:21.325Z,31.00
2022-12-15T07:53:51.197Z,34.27
2022-12-15T07:56:20.495Z,35.20
2022-12-15T07:58:50.132Z,32.40
2022-12-15T08:01:19.418Z,34.73
2022-12-15T08:03:48.308Z,33.07
2022-12-15T08:06:16.923Z,32.37
2022-12-15T08:08:50.766Z,32.67
2022-12-15T08:11:21.855Z,31.50
2022-12-15T08:14:10.534Z,32.70
2022-12-15T08:16:40.035Z,30.93
2022-12-15T08:19:11.854Z,30.60
2022-12-15T08:21:41.353Z,31.27
2022-12-15T08:24:09.872Z,30.67
2022-12-15T08:26:39.154Z,31.63
2022-12-15T08:29:49.105Z,30.70
2022-12-15T08:32:00.200Z,31.50
2022-12-15T08:34:28.473Z,33.50
2022-12-15T08:36:56.948Z,31.47
2022-12-15T08:39:25.433Z,31.60
2022-12-15T08:41:53.745Z,32.50
2022-12-15T08:44:23.552Z,33.73
2022-12-15T08:46:52.390Z,33.27
2022-12-15T08:49:22.283Z,32.87
2022-12-15T08:51:51.585Z,30.93
2022-12-15T08:54:21.496Z,32.60
2022-12-15T08:56:52.261Z,30.57
2022-12-15T08:59:20.728Z,32.83
2022-12-15T09:01:50.694Z,33.80
2022-12-15T09:04:19.148Z,30.70
2022-12-15T09:06:50.491Z,30.90
2022-12-15T09:09:20.110Z,31.63
2022-12-15T09:11:48.537Z,30.47
2022-12-15T09:14:17.220Z,28.30
2022-12-15T09:16:45.872Z,29.77
2022-12-15T09:19:20.362Z,30.00
2022-12-15T09:21:49.580Z,28.60
2022-12-15T09:24:28.720Z,31.33
2022-12-15T09:27:01.010Z,31.23
2022-12-15T09:29:29.156Z,31.50
2022-12-15T09:31:57.409Z,30.83
2022-12-15T09:34:31.130Z,29.00
2022-12-15T09:36:59.596Z,30.73
2022-12-15T09:39:27.881Z,32.67
2022-12-15T09:41:59.687Z,31.10
2022-12-15T09:44:30.885Z,30.77
2022-12-15T09:47:13.144Z,32.83
2022-12-15T09:49:53.641Z,31.67
2022-12-15T09:52:24.869Z,28.67
2022-12-15T09:54:55.716Z,28.93
2022-12-15T09:57:32.629Z,29.00
2022-12-15T10:00:15.494Z,26.30
2022-12-15T10:03:31.165Z,26.07
2022-12-15T10:06:20.117Z,25.93
2022-12-15T10:08:55.236Z,24.20
2022-12-15T10:11:36.927Z,25.70
2022-12-15T10:14:14.383Z,23.93
2022-12-15T10:16:52.734Z,24.70
2022-12-15T10:19:27.858Z,21.27
2022-12-15T10:21:58.310Z,21.63
2022-12-15T10:25:07.913Z,24.60
2022-12-15T10:27:31.354Z,25.70
2022-12-15T10:30:02.842Z,26.23
2022-12-15T10:32:43.862Z,28.30
2022-12-15T10:35:17.039Z,24.63
2022-12-15T10:37:47.013Z,24.50
2022-12-15T10:40:21.592Z,26.87
2022-12-15T10:42:51.920Z,20.37
2022-12-15T10:45:35.771Z,26.47
2022-12-15T10:48:06.695Z,29.80
2022-12-15T10:50:35.592Z,27.63
2022-12-15T10:53:09.678Z,27.83
2022-12-15T10:55:40.407Z,29.70
2022-12-15T10:58:18.951Z,27.23
2022-12-15T11:00:50.820Z,26.87
2022-12-15T11:03:25.119Z,27.50
2022-12-15T11:05:54.459Z,27.43
2022-12-15T11:08:25.941Z,29.67
2022-12-15T11:11:19.135Z,29.90
2022-12-15T11:14:07.572Z,27.03
2022-12-15T11:16:36.301Z,29.73
2022-12-15T11:19:12.433Z,29.33
2022-12-15T11:21:46.064Z,28.73
2022-12-15T11:24:26.122Z,20.83
2022-12-15T11:26:59.342Z,27.67
2022-12-15T11:29:34.749Z,29.40
2022-12-15T11:32:07.315Z,24.30
2022-12-15T11:34:40.116Z,25.07
2022-12-15T11:37:24.060Z,23.73
2022-12-15T11:40:06.796Z,28.27
2022-12-15T11:42:48.903Z,29.30
2022-12-15T11:45:23.884Z,31.13
2022-12-15T11:47:57.030Z,30.20
2022-12-15T11:50:31.567Z,33.10
2022-12-15T11:53:16.169Z,31.17
2022-12-15T11:55:54.246Z,32.03
2022-12-15T11:58:51.948Z,28.50
2022-12-15T12:01:36.829Z,26.10
2022-12-15T12:04:17.709Z,27.07
2022-12-15T12:06:55.776Z,29.20
2022-12-15T12:09:30.730Z,29.07
2022-12-15T12:12:11.945Z,29.17
2022-12-15T12:14:52.281Z,28.43
2022-12-15T12:17:32.415Z,27.90
2022-12-15T12:20:11.214Z,26.90
2022-12-15T12:22:43.853Z,29.17
2022-12-15T12:25:16.014Z,26.53
2022-12-15T12:27:53.122Z,27.53
2022-12-15T12:30:23.440Z,29.27
2022-12-15T12:32:59.719Z,31.70
2022-12-15T12:35:37.558Z,25.53
2022-12-15T12:38:06.947Z,32.40
2022-12-15T12:40:50.312Z,31.17
2022-12-15T12:43:33.311Z,26.60
2022-12-15T12:46:09.021Z,29.70
2022-12-15T12:48:42.883Z,30.63
2022-12-15T12:51:21.257Z,30.53
2022-12-15T12:53:50.379Z,31.37
2022-12-15T12:56:41.692Z,31.03
2022-12-15T12:59:39.994Z,30.00
2022-12-15T13:02:46.639Z,31.73
2022-12-15T13:05:27.803Z,29.13
2022-12-15T13:07:57.933Z,27.67
2022-12-15T13:10:27.162Z,27.33
2022-12-15T13:12:59.133Z,28.37
2022-12-15T13:15:42.487Z,32.17
2022-12-15T13:18:18.019Z,29.70
2022-12-15T13:20:50.712Z,27.87
2022-12-15T13:23:50.388Z,29.07
2022-12-15T13:26:20.941Z,30.90
2022-12-15T13:28:58.229Z,29.93
2022-12-15T13:31:43.446Z,26.13
2022-12-15T13:34:18.740Z,26.10
2022-12-15T13:36:55.173Z,25.20
2022-12-15T13:39:36.449Z,22.87
2022-12-15T13:42:45.338Z,22.73
2022-12-15T13:48:43.830Z,21.97
2022-12-15T13:51:25.331Z,20.87
2022-12-15T13:53:59.461Z,17.97
2022-12-15T13:56:41.159Z,22.03
2022-12-15T13:59:19.794Z,19.73
2022-12-15T14:01:52.781Z,22.13
2022-12-15T14:04:23.726Z,18.87
2022-12-15T14:06:54.873Z,21.03
2022-12-15T14:09:28.438Z,21.80
2022-12-15T14:11:57.027Z,20.47
2022-12-15T14:14:28.505Z,20.87
2022-12-15T14:17:02.614Z,20.10
2022-12-15T14:19:42.822Z,20.93
2022-12-15T14:22:28.271Z,20.07
2022-12-15T14:25:02.837Z,19.83
2022-12-15T14:27:33.413Z,18.57
2022-12-15T14:30:23.473Z,20.23
2022-12-15T14:32:55.973Z,19.37
2022-12-15T14:35:31.118Z,18.77
2022-12-15T14:38:02.788Z,22.47
2022-12-15T14:40:31.861Z,22.27
2022-12-15T14:43:00.407Z,21.00
2022-12-15T14:45:32.160Z,22.57
2022-12-15T14:48:39.643Z,23.17
2022-12-15T14:50:52.982Z,20.10
2022-12-15T14:53:23.425Z,22.40
2022-12-15T14:55:52.012Z,22.80
2022-12-15T14:58:33.903Z,23.07
2022-12-15T15:01:03.934Z,23.33
2022-12-15T15:03:12.028Z,18.07
2022-12-15T15:03:38.465Z,25.33
2022-12-15T15:06:19.139Z,22.93
2022-12-15T15:08:50.169Z,25.50
2022-12-15T15:11:29.796Z,22.07
2022-12-15T15:14:01.213Z,23.83
2022-12-15T15:16:29.961Z,22.97
2022-12-15T15:19:00.780Z,26.93
2022-12-15T15:21:35.349Z,24.93
2022-12-15T15:24:05.820Z,23.50
2022-12-15T15:26:34.577Z,23.47
2022-12-15T15:29:03.399Z,25.47
2022-12-15T15:31:41.475Z,22.77
2022-12-15T15:34:11.903Z,25.17
2022-12-15T15:36:41.747Z,24.70
2022-12-15T15:39:16.287Z,24.43
2022-12-15T15:41:44.767Z,24.00
2022-12-15T15:44:14.912Z,25.47
2022-12-15T15:46:47.810Z,24.33
2022-12-15T15:49:19.265Z,25.70
2022-12-15T15:51:49.457Z,24.97
2022-12-15T15:54:19.616Z,25.87
2022-12-15T15:56:47.786Z,24.33
2022-12-15T15:59:18.311Z,23.80
2022-12-15T16:01:49.179Z,24.07
2022-12-15T16:04:17.581Z,24.50
2022-12-15T16:06:47.771Z,26.43
2022-12-15T16:09:17.970Z,27.77
2022-12-15T16:11:47.554Z,25.67
2022-12-15T16:14:17.655Z,26.47
2022-12-15T16:16:46.306Z,26.60
2022-12-15T16:19:14.545Z,26.40
2022-12-15T16:21:44.053Z,26.30
2022-12-15T16:24:17.065Z,26.10
2022-12-15T16:26:50.016Z,29.40
2022-12-15T16:29:20.467Z,25.27
2022-12-15T16:31:48.905Z,24.37
2022-12-15T16:34:17.722Z,21.37
2022-12-15T16:36:46.810Z,25.90
2022-12-15T16:39:26.553Z,25.30
2022-12-15T16:41:57.344Z,25.50
2022-12-15T16:44:26.634Z,26.17
2022-12-15T16:46:54.894Z,26.07
2022-12-15T16:49:23.579Z,24.80
2022-12-15T16:51:53.691Z,25.30
2022-12-15T16:54:25.389Z,26.77
2022-12-15T16:56:55.390Z,27.50
2022-12-15T16:59:34.923Z,26.13
2022-12-15T17:02:21.119Z,27.37
2022-12-15T17:04:50.338Z,26.63
2022-12-15T17:07:20.520Z,26.33
2022-12-15T17:09:50.939Z,26.50
2022-12-15T17:12:20.754Z,28.03
2022-12-15T17:14:49.139Z,27.80
2022-12-15T17:17:19.368Z,29.40
2022-12-15T17:20:19.722Z,30.63
2022-12-15T17:22:38.293Z,29.37
2022-12-15T17:25:07.686Z,31.93
2022-12-15T17:27:37.318Z,30.63
2022-12-15T17:30:06.379Z,30.10
2022-12-15T17:32:34.677Z,32.23
2022-12-15T17:35:03.276Z,30.90
2022-12-15T17:37:35.269Z,29.90
2022-12-15T17:40:04.834Z,31.37
2022-12-15T17:42:33.026Z,33.60
2022-12-15T17:45:02.798Z,32.20
2022-12-15T17:47:31.151Z,33.53
2022-12-15T17:49:59.894Z,32.87
2022-12-15T17:52:30.283Z,32.97
2022-12-15T17:54:58.863Z,31.10
2022-12-15T17:57:27.476Z,32.03
2022-12-15T17:59:55.881Z,32.50
2022-12-15T18:02:25.651Z,31.63
2022-12-15T18:04:55.333Z,30.57
2022-12-15T18:07:24.988Z,30.03
2022-12-15T18:09:54.147Z,28.23
2022-12-15T18:12:24.811Z,31.57
2022-12-15T18:14:53.767Z,28.40
2022-12-15T18:17:22.634Z,28.93
2022-12-15T18:19:52.348Z,30.73
2022-12-15T18:22:23.571Z,29.43
2022-12-15T18:24:53.787Z,29.63
2022-12-15T18:27:24.761Z,29.20
2022-12-15T18:29:53.467Z,27.33
2022-12-15T18:32:27.009Z,24.17
2022-12-15T18:34:57.029Z,23.90
2022-12-15T18:37:25.872Z,24.93
2022-12-15T18:39:57.115Z,25.00
2022-12-15T18:42:30.920Z,25.83
2022-12-15T18:45:00.577Z,24.83
2022-12-15T18:47:28.883Z,25.87
2022-12-15T18:50:00.382Z,23.67
2022-12-15T18:52:34.262Z,23.50
2022-12-15T18:55:03.067Z,23.97
2022-12-15T18:57:33.417Z,23.07
2022-12-15T19:00:07.970Z,23.87
2022-12-15T19:02:36.357Z,24.10
2022-12-15T19:05:07.078Z,22.47
2022-12-15T19:07:37.132Z,24.07
2022-12-15T19:10:05.960Z,25.63
2022-12-15T19:12:34.354Z,25.33
2022-12-15T19:15:02.654Z,25.27
2022-12-15T19:17:48.298Z,23.93
2022-12-15T19:20:38.397Z,25.53
2022-12-15T19:23:07.197Z,25.90
2022-12-15T19:25:36.355Z,24.90
2022-12-15T19:28:05.218Z,25.10
2022-12-15T19:30:40.236Z,24.87
2022-12-15T19:33:09.981Z,25.60
2022-12-15T19:35:40.575Z,25.67
2022-12-15T19:38:11.627Z,25.70
2022-12-15T19:40:40.591Z,21.57
2022-12-15T19:43:14.207Z,24.00
2022-12-15T19:45:42.565Z,22.30
2022-12-15T19:48:12.191Z,23.10
2022-12-15T19:50:43.447Z,23.10
2022-12-15T19:53:17.503Z,24.77
2022-12-15T19:55:46.782Z,23.63
2022-12-15T19:58:29.722Z,24.03
2022-12-15T20:00:59.485Z,24.23
2022-12-15T20:03:28.752Z,23.40
2022-12-15T20:05:59.989Z,23.43
2022-12-15T20:08:33.871Z,23.10
2022-12-15T20:11:02.122Z,22.83
2022-12-15T20:13:30.938Z,21.77
2022-12-15T20:15:59.436Z,23.67
2022-12-15T20:18:27.597Z,22.97
2022-12-15T20:20:55.859Z,23.43
2022-12-15T20:23:27.396Z,22.77
2022-12-15T20:25:56.311Z,21.97
2022-12-15T20:28:28.057Z,20.73
2022-12-15T20:30:57.262Z,21.03
2022-12-15T20:33:25.890Z,20.37
2022-12-15T20:35:55.013Z,20.20
2022-12-15T20:38:31.829Z,19.87
2022-12-15T20:41:01.137Z,21.13
2022-12-15T20:43:32.349Z,21.50
2022-12-15T20:46:05.112Z,20.27
2022-12-15T20:48:34.869Z,20.00
2022-12-15T20:51:08.834Z,20.07
2022-12-15T20:53:40.044Z,21.03
2022-12-15T20:56:09.309Z,20.57
2022-12-15T20:58:40.550Z,20.43
2022-12-15T21:01:22.504Z,22.57
2022-12-15T21:03:52.960Z,22.40
2022-12-15T21:06:21.917Z,21.77
2022-12-15T21:09:41.777Z,22.77
2022-12-15T21:12:25.881Z,23.13
2022-12-15T21:14:54.831Z,23.67
2022-12-15T21:17:25.699Z,23.43
2022-12-15T21:19:54.929Z,23.97
2022-12-15T21:22:25.606Z,23.97
2022-12-15T21:24:55.998Z,24.77
2022-12-15T21:27:26.343Z,23.03
2022-12-15T21:29:54.435Z,24.00
2022-12-15T21:35:49.466Z,23.57
2022-12-15T21:38:31.305Z,24.20
2022-12-15T21:41:03.238Z,22.67
2022-12-15T21:43:36.575Z,24.70
2022-12-15T21:46:14.447Z,24.67
2022-12-15T21:49:00.952Z,26.17
2022-12-15T21:51:32.504Z,24.50
2022-12-15T21:54:01.586Z,23.20
2022-12-15T21:56:30.338Z,25.27
2022-12-15T21:59:00.625Z,24.83
2022-12-15T22:01:30.786Z,25.53
2022-12-15T22:04:02.877Z,26.20
2022-12-15T22:06:31.491Z,25.83
2022-12-15T22:09:00.136Z,26.30
2022-12-15T22:11:29.680Z,25.40
2022-12-15T22:14:02.786Z,25.07
2022-12-15T22:16:31.597Z,25.17
2022-12-15T22:18:59.875Z,25.27
2022-12-15T22:21:28.433Z,26.67
2022-12-15T22:23:56.628Z,27.77
2022-12-15T22:26:29.841Z,27.63
2022-12-15T22:29:01.431Z,26.80
2022-12-15T22:31:30.298Z,27.27
2022-12-15T22:33:59.419Z,28.40
2022-12-15T22:36:28.806Z,29.30
2022-12-15T22:38:57.463Z,29.17
2022-12-15T22:41:26.438Z,28.77
2022-12-15T22:43:56.507Z,29.97
2022-12-15T22:46:26.386Z,30.03
2022-12-15T22:48:55.095Z,30.60
2022-12-15T22:51:23.486Z,28.50
2022-12-15T22:53:51.650Z,29.73
2022-12-15T22:56:27.025Z,29.70
2022-12-15T22:59:00.825Z,30.93
2022-12-15T23:01:31.201Z,32.33
2022-12-15T23:04:00.366Z,34.33
2022-12-15T23:06:29.429Z,33.47
2022-12-15T23:08:57.688Z,33.23
2022-12-15T23:11:41.457Z,31.40
2022-12-15T23:14:12.312Z,34.60
2022-12-15T23:16:42.033Z,35.13
2022-12-15T23:19:23.824Z,33.93
2022-12-15T23:21:52.632Z,34.47
2022-12-15T23:24:20.815Z,35.00
2022-12-15T23:26:49.093Z,33.03
2022-12-15T23:29:17.612Z,35.77
2022-12-15T23:31:47.492Z,34.23
2022-12-15T23:34:15.749Z,35.37
2022-12-15T23:36:43.927Z,36.33
2022-12-15T23:39:12.158Z,34.00
2022-12-15T23:41:41.424Z,33.73
2022-12-15T23:44:09.577Z,33.63
2022-12-15T23:46:37.790Z,33.87
2022-12-15T23:49:07.958Z,35.00
2022-12-15T23:51:36.140Z,34.50
2022-12-15T23:54:04.254Z,34.57
2022-12-15T23:56:32.413Z,34.57
2022-12-15T23:59:01.076Z,33.80
